TimeEDT,TemperatureF,Dew PointF,Humidity,Sea Level PressureIn,VisibilityMPH,Wind Direction,Wind SpeedMPH,Gust SpeedMPH,PrecipitationIn,Events,Conditions,WindDirDegrees,DateUTC
12:15 AM,69.8,69.8,100,30.06,10.0,SSE,4.6,-,N/A,,Mostly Cloudy,150,2013-04-19 04:15:00
12:35 AM,69.8,69.8,100,30.06,10.0,SSE,5.8,-,N/A,,Mostly Cloudy,160,2013-04-19 04:35:00
12:55 AM,69.8,69.8,100,30.05,10.0,SE,5.8,-,N/A,,Mostly Cloudy,140,2013-04-19 04:55:00
1:15 AM,69.8,69.8,100,30.04,10.0,SSE,5.8,-,N/A,,Scattered Clouds,150,2013-04-19 05:15:00
1:35 AM,69.8,69.8,100,30.03,10.0,SSE,6.9,-,N/A,,Mostly Cloudy,150,2013-04-19 05:35:00
1:55 AM,69.8,69.8,100,30.02,10.0,SSE,5.8,-,N/A,,Scattered Clouds,160,2013-04-19 05:55:00
2:15 AM,68.0,68.0,100,30.01,10.0,SSE,6.9,-,N/A,,Clear,150,2013-04-19 06:15:00
2:35 AM,68.0,68.0,100,30.01,10.0,SSE,4.6,-,N/A,,Clear,150,2013-04-19 06:35:00
2:55 AM,68.0,68.0,100,30.01,10.0,South,3.5,-,N/A,,Clear,170,2013-04-19 06:55:00
3:15 AM,68.0,68.0,100,30.00,10.0,South,4.6,-,N/A,,Clear,170,2013-04-19 07:15:00
3:35 AM,68.0,68.0,100,30.00,10.0,SSE,4.6,-,N/A,,Clear,160,2013-04-19 07:35:00
3:55 AM,68.0,68.0,100,29.98,10.0,SSE,4.6,-,N/A,,Scattered Clouds,150,2013-04-19 07:55:00
4:15 AM,68.0,68.0,100,29.98,10.0,SSE,4.6,-,N/A,,Scattered Clouds,160,2013-04-19 08:15:00
4:35 AM,68.0,68.0,100,29.98,10.0,South,5.8,-,N/A,,Scattered Clouds,170,2013-04-19 08:35:00
4:55 AM,68.0,68.0,100,29.98,10.0,SSE,5.8,-,N/A,,Scattered Clouds,160,2013-04-19 08:55:00
5:15 AM,68.0,68.0,100,29.98,10.0,South,4.6,-,N/A,,Scattered Clouds,180,2013-04-19 09:15:00
5:35 AM,69.8,69.8,100,29.98,10.0,South,5.8,-,N/A,,Mostly Cloudy,170,2013-04-19 09:35:00
5:55 AM,69.8,69.8,100,29.98,10.0,South,9.2,-,N/A,,Scattered Clouds,180,2013-04-19 09:55:00
6:15 AM,69.8,69.8,100,29.98,10.0,South,8.1,-,N/A,,Clear,190,2013-04-19 10:15:00
6:35 AM,69.8,69.8,100,29.99,10.0,South,6.9,-,N/A,,Clear,190,2013-04-19 10:35:00
6:55 AM,69.8,69.8,100,29.98,10.0,South,6.9,-,N/A,,Clear,180,2013-04-19 10:55:00
7:15 AM,69.8,69.8,100,30.00,10.0,South,6.9,-,N/A,,Clear,190,2013-04-19 11:15:00
7:35 AM,69.8,69.8,100,30.00,10.0,South,6.9,-,N/A,,Clear,190,2013-04-19 11:35:00
7:55 AM,71.6,71.6,100,30.01,10.0,SSW,8.1,-,N/A,Rain,Light Rain,200,2013-04-19 11:55:00
8:15 AM,71.6,71.6,100,30.01,10.0,South,9.2,-,N/A,,Mostly Cloudy,180,2013-04-19 12:15:00
8:35 AM,73.4,71.6,94,30.01,10.0,SSW,12.7,18.4,N/A,,Scattered Clouds,200,2013-04-19 12:35:00
8:55 AM,75.2,71.6,89,30.01,10.0,South,13.8,19.6,N/A,,Mostly Cloudy,190,2013-04-19 12:55:00
9:15 AM,77.0,71.6,83,30.01,10.0,South,18.4,23.0,N/A,,Overcast,190,2013-04-19 13:15:00
9:35 AM,75.2,71.6,89,30.01,10.0,SSW,10.4,18.4,N/A,,Overcast,200,2013-04-19 13:35:00
9:55 AM,77.0,71.6,83,30.01,10.0,South,15.0,20.7,N/A,,Overcast,190,2013-04-19 13:55:00
10:35 AM,77.0,71.6,83,30.01,10.0,SSW,15.0,33.4,N/A,,Overcast,200,2013-04-19 14:35:00
10:55 AM,77.0,71.6,83,30.01,10.0,SSW,17.3,23.0,N/A,,Overcast,200,2013-04-19 14:55:00
11:15 AM,77.0,71.6,83,30.00,10.0,SSW,18.4,24.2,N/A,,Overcast,210,2013-04-19 15:15:00
11:35 AM,77.0,71.6,83,29.99,10.0,SSW,16.1,25.3,N/A,,Overcast,210,2013-04-19 15:35:00
11:55 AM,77.0,69.8,78,29.99,10.0,SSW,20.7,26.5,N/A,,Overcast,200,2013-04-19 15:55:00
12:15 PM,78.8,69.8,74,29.99,10.0,SSW,16.1,24.2,N/A,,Mostly Cloudy,210,2013-04-19 16:15:00
12:35 PM,78.8,69.8,74,29.98,10.0,SSW,17.3,26.5,N/A,,Scattered Clouds,210,2013-04-19 16:35:00
12:55 PM,77.0,69.8,78,29.98,10.0,South,16.1,20.7,N/A,,Mostly Cloudy,190,2013-04-19 16:55:00
1:15 PM,77.0,68.0,74,29.98,10.0,SSW,17.3,25.3,N/A,,Scattered Clouds,200,2013-04-19 17:15:00
1:35 PM,75.2,68.0,78,29.97,10.0,SSW,12.7,25.3,N/A,,Scattered Clouds,200,2013-04-19 17:35:00
2:15 PM,77.0,69.8,78,29.95,10.0,SSW,15.0,25.3,N/A,,Overcast,200,2013-04-19 18:15:00
2:35 PM,77.0,69.8,78,29.94,10.0,South,19.6,23.0,N/A,,Overcast,180,2013-04-19 18:35:00
2:55 PM,75.2,69.8,83,29.94,10.0,SSW,19.6,25.3,N/A,,Overcast,200,2013-04-19 18:55:00
3:15 PM,75.2,71.6,89,29.93,10.0,South,13.8,23.0,N/A,,Overcast,190,2013-04-19 19:15:00
3:35 PM,77.0,71.6,83,29.93,10.0,South,17.3,32.2,N/A,,Overcast,190,2013-04-19 19:35:00
3:55 PM,77.0,69.8,78,29.92,10.0,SSW,21.9,32.2,N/A,,Overcast,210,2013-04-19 19:55:00
4:15 PM,77.0,69.8,78,29.92,10.0,South,25.3,34.5,N/A,,Overcast,190,2013-04-19 20:15:00
4:35 PM,77.0,69.8,78,29.91,10.0,SSW,19.6,25.3,N/A,,Overcast,210,2013-04-19 20:35:00
4:55 PM,77.0,69.8,78,29.91,10.0,South,17.3,31.1,N/A,,Overcast,190,2013-04-19 20:55:00
5:15 PM,77.0,71.6,83,29.90,10.0,South,13.8,29.9,N/A,,Overcast,190,2013-04-19 21:15:00
5:35 PM,77.0,71.6,83,29.90,10.0,South,15.0,23.0,N/A,,Mostly Cloudy,180,2013-04-19 21:35:00
5:55 PM,77.0,71.6,83,29.89,10.0,South,17.3,27.6,N/A,,Mostly Cloudy,180,2013-04-19 21:55:00
6:15 PM,75.2,71.6,89,29.89,10.0,South,12.7,23.0,N/A,,Mostly Cloudy,190,2013-04-19 22:15:00
6:35 PM,75.2,71.6,89,29.89,10.0,South,19.6,24.2,N/A,,Mostly Cloudy,180,2013-04-19 22:35:00
6:55 PM,73.4,71.6,94,29.91,10.0,SSW,11.5,21.9,N/A,,Mostly Cloudy,200,2013-04-19 22:55:00
7:15 PM,73.4,71.6,94,29.90,10.0,South,16.1,19.6,N/A,,Overcast,180,2013-04-19 23:15:00
7:35 PM,73.4,71.6,94,29.90,10.0,South,19.6,25.3,N/A,,Overcast,190,2013-04-19 23:35:00
7:55 PM,73.4,71.6,94,29.90,10.0,South,13.8,20.7,N/A,,Overcast,190,2013-04-19 23:55:00
8:15 PM,73.4,71.6,94,29.91,10.0,SSW,12.7,16.1,N/A,,Overcast,210,2013-04-20 00:15:00
8:35 PM,68.0,68.0,100,29.93,3.0,SW,12.7,-,N/A,Rain-Thunderstorm,Heavy Thunderstorms and Rain,220,2013-04-20 00:35:00
8:55 PM,66.2,66.2,100,29.92,4.0,SSW,9.2,-,N/A,Rain-Thunderstorm,Heavy Thunderstorms and Rain,210,2013-04-20 00:55:00
9:15 PM,66.2,66.2,100,29.92,3.0,South,6.9,-,N/A,Rain-Thunderstorm,Heavy Thunderstorms and Rain,190,2013-04-20 01:15:00
9:35 PM,66.2,66.2,100,29.92,3.0,SSW,4.6,-,N/A,Rain-Thunderstorm,Heavy Thunderstorms and Rain,210,2013-04-20 01:35:00
9:55 PM,66.2,66.2,100,29.93,10.0,SW,5.8,-,N/A,Rain,Rain,220,2013-04-20 01:55:00
10:15 PM,66.2,66.2,100,29.91,7.0,SW,3.5,-,N/A,Rain-Thunderstorm,Light Thunderstorms and Rain,230,2013-04-20 02:15:00
10:35 PM,66.2,66.2,100,29.92,10.0,SSW,4.6,-,N/A,,Mostly Cloudy,210,2013-04-20 02:35:00
10:55 PM,66.2,66.2,100,29.92,10.0,South,3.5,-,N/A,,Mostly Cloudy,180,2013-04-20 02:55:00
11:15 PM,68.0,68.0,100,29.93,10.0,SSW,8.1,-,N/A,,Overcast,200,2013-04-20 03:15:00
11:35 PM,68.0,68.0,100,29.92,10.0,SSW,5.8,-,N/A,,Overcast,210,2013-04-20 03:35:00
11:55 PM,68.0,68.0,100,29.93,10.0,SW,8.1,-,N/A,,Overcast,220,2013-04-20 03:55:00